createdAt,value
2023-03-14T00:01:29.086Z,96600.06
2023-03-14T00:03:55.792Z,96586.66
2023-03-14T00:06:23.583Z,96578.56
2023-03-14T00:08:50.316Z,96581.34
2023-03-14T00:11:20.589Z,96584.47
2023-03-14T00:13:54.099Z,96575.38
2023-03-14T00:16:22.714Z,96567.53
2023-03-14T00:18:49.565Z,96574.59
2023-03-14T00:21:16.377Z,96567.19
2023-03-14T00:23:43.736Z,96563.28
2023-03-14T00:26:13.148Z,96553.53
2023-03-14T00:28:40.855Z,96563.97
2023-03-14T00:31:09.496Z,96566.06
2023-03-14T00:33:36.682Z,96555.44
2023-03-14T00:36:09.909Z,96567.13
2023-03-14T00:38:38.206Z,96574.28
2023-03-14T00:41:07.998Z,96577.81
2023-03-14T00:43:34.689Z,96589.09
2023-03-14T00:46:02.119Z,96582.47
2023-03-14T00:48:29.488Z,96579.72
2023-03-14T00:50:56.561Z,96584.69
2023-03-14T00:53:23.882Z,96586.91
2023-03-14T00:55:50.873Z,96582.31
2023-03-14T00:58:18.933Z,96594.31
2023-03-14T01:00:46.727Z,96609.16
2023-03-14T01:03:14.831Z,96604.84
2023-03-14T01:05:42.014Z,96609.16
2023-03-14T01:08:09.182Z,96605.19
2023-03-14T01:10:40.444Z,96605.66
2023-03-14T01:13:07.165Z,96601.84
2023-03-14T01:15:35.159Z,96599.84
2023-03-14T01:18:02.557Z,96591.91
2023-03-14T01:20:29.278Z,96604.09
2023-03-14T01:22:55.942Z,96601.84
2023-03-14T01:25:22.886Z,96595.97
2023-03-14T01:27:49.636Z,96579.88
2023-03-14T01:30:16.622Z,96578.22
2023-03-14T01:32:44.567Z,96572.13
2023-03-14T01:35:11.260Z,96564.75
2023-03-14T01:37:38.546Z,96560.84
2023-03-14T01:40:08.021Z,96559.53
2023-03-14T01:42:34.756Z,96570.25
2023-03-14T01:45:02.696Z,96566.91
2023-03-14T01:47:30.100Z,96557.53
2023-03-14T01:50:00.081Z,96550.97
2023-03-14T01:52:37.433Z,96545.56
2023-03-14T01:55:11.780Z,96531.09
2023-03-14T01:57:41.098Z,96523.06
2023-03-14T02:00:16.745Z,96511.00
2023-03-14T02:02:47.631Z,96509.53
2023-03-14T02:05:19.989Z,96514.53
2023-03-14T02:08:01.079Z,96516.78
2023-03-14T02:10:36.916Z,96505.75
2023-03-14T02:13:05.939Z,96502.75
2023-03-14T02:15:49.912Z,96496.00
2023-03-14T02:18:44.108Z,96493.13
2023-03-14T02:21:38.245Z,96492.72
2023-03-14T02:24:39.916Z,96486.50
2023-03-14T02:27:12.065Z,96506.72
2023-03-14T02:29:50.984Z,96505.31
2023-03-14T02:32:20.296Z,96498.88
2023-03-14T02:34:51.410Z,96484.03
2023-03-14T02:37:20.175Z,96485.25
2023-03-14T02:39:48.975Z,96478.41
2023-03-14T02:42:16.612Z,96467.56
2023-03-14T02:44:56.137Z,96465.63
2023-03-14T02:47:28.970Z,96474.81
2023-03-14T02:50:02.856Z,96475.19
2023-03-14T02:52:30.690Z,96481.28
2023-03-14T02:54:57.403Z,96471.75
2023-03-14T02:57:24.873Z,96457.63
2023-03-14T02:59:51.604Z,96464.69
2023-03-14T03:02:20.221Z,96462.59
2023-03-14T03:04:46.975Z,96463.94
2023-03-14T03:07:16.654Z,96470.41
2023-03-14T03:09:46.636Z,96457.88
2023-03-14T03:12:13.398Z,96462.13
2023-03-14T03:14:40.348Z,96446.84
2023-03-14T03:17:07.883Z,96441.81
2023-03-14T03:19:35.059Z,96429.41
2023-03-14T03:22:01.822Z,96434.59
2023-03-14T03:24:28.518Z,96428.63
2023-03-14T03:26:55.523Z,96431.41
2023-03-14T03:29:22.560Z,96423.41
2023-03-14T03:31:49.257Z,96422.31
2023-03-14T03:34:16.733Z,96412.66
2023-03-14T03:36:44.715Z,96418.59
2023-03-14T03:39:12.514Z,96417.06
2023-03-14T03:41:39.188Z,96411.06
2023-03-14T03:44:06.897Z,96419.75
2023-03-14T03:46:33.720Z,96422.78
2023-03-14T03:49:01.489Z,96418.91
2023-03-14T03:51:29.196Z,96423.63
2023-03-14T03:53:57.410Z,96423.03
2023-03-14T03:56:33.305Z,96425.28
2023-03-14T03:59:00.506Z,96431.25
2023-03-14T04:01:27.196Z,96415.34
2023-03-14T04:03:57.125Z,96407.63
2023-03-14T04:06:24.196Z,96414.16
2023-03-14T04:08:55.172Z,96409.81
2023-03-14T04:11:40.348Z,96415.72
2023-03-14T04:14:28.719Z,96420.22
2023-03-14T04:17:11.642Z,96402.53
2023-03-14T04:19:38.808Z,96405.63
2023-03-14T04:22:06.001Z,96410.47
2023-03-14T04:24:38.175Z,96408.88
2023-03-14T04:27:04.838Z,96399.72
2023-03-14T04:29:32.979Z,96403.50
2023-03-14T04:31:59.934Z,96393.22
2023-03-14T04:34:26.613Z,96394.69
2023-03-14T04:36:55.832Z,96400.63
2023-03-14T04:39:30.052Z,96401.09
2023-03-14T04:42:06.786Z,96388.97
2023-03-14T04:44:34.254Z,96377.38
2023-03-14T04:47:01.689Z,96378.38
2023-03-14T04:49:28.424Z,96378.13
2023-03-14T04:51:55.223Z,96377.22
2023-03-14T04:54:23.764Z,96381.13
2023-03-14T04:56:54.914Z,96359.34
2023-03-14T04:59:21.864Z,96375.25
2023-03-14T05:01:50.961Z,96360.28
2023-03-14T05:04:40.578Z,96350.00
2023-03-14T05:07:33.452Z,96354.38
2023-03-14T05:10:38.761Z,96347.09
2023-03-14T05:13:13.623Z,96340.34
2023-03-14T05:16:08.878Z,96341.00
2023-03-14T05:19:02.553Z,96329.91
2023-03-14T05:21:48.128Z,96344.38
2023-03-14T05:24:26.576Z,96337.66
2023-03-14T05:27:05.216Z,96343.28
2023-03-14T05:30:05.929Z,96337.03
2023-03-14T05:32:35.674Z,96333.19
2023-03-14T05:35:14.822Z,96333.97
2023-03-14T05:37:59.990Z,96339.28
2023-03-14T05:40:57.957Z,96334.28
2023-03-14T05:43:33.807Z,96326.78
2023-03-14T05:46:20.816Z,96321.19
2023-03-14T05:48:50.032Z,96323.25
2023-03-14T05:51:35.502Z,96311.06
2023-03-14T05:54:37.593Z,96310.06
2023-03-14T05:57:18.456Z,96308.16
2023-03-14T06:00:12.002Z,96307.47
2023-03-14T06:02:41.217Z,96303.72
2023-03-14T06:05:18.724Z,96322.66
2023-03-14T06:07:45.982Z,96307.94
2023-03-14T06:10:12.752Z,96299.22
2023-03-14T06:12:41.926Z,96304.72
2023-03-14T06:15:09.043Z,96309.88
2023-03-14T06:17:35.833Z,96307.19
2023-03-14T06:20:08.209Z,96301.72
2023-03-14T06:22:35.080Z,96298.69
2023-03-14T06:25:02.404Z,96293.66
2023-03-14T06:27:31.921Z,96301.78
2023-03-14T06:29:58.993Z,96293.53
2023-03-14T06:32:26.829Z,96290.53
2023-03-14T06:34:58.226Z,96307.34
2023-03-14T06:37:25.048Z,96312.69
2023-03-14T06:39:52.674Z,96298.97
2023-03-14T06:42:34.422Z,96304.09
2023-03-14T06:45:01.228Z,96313.22
2023-03-14T06:47:28.015Z,96309.81
2023-03-14T06:49:55.280Z,96301.97
2023-03-14T06:52:22.493Z,96309.16
2023-03-14T06:54:49.159Z,96313.75
2023-03-14T06:57:16.950Z,96306.59
2023-03-14T06:59:43.558Z,96306.28
2023-03-14T07:02:13.610Z,96310.44
2023-03-14T07:04:42.142Z,96308.16
2023-03-14T07:07:09.679Z,96303.16
2023-03-14T07:09:36.969Z,96309.75
2023-03-14T07:12:05.124Z,96310.34
2023-03-14T07:14:31.840Z,96311.47
2023-03-14T07:16:59.917Z,96305.06
2023-03-14T07:19:26.707Z,96313.84
2023-03-14T07:21:53.471Z,96312.59
2023-03-14T07:24:24.497Z,96314.00
2023-03-14T07:26:51.179Z,96311.66
2023-03-14T07:29:17.859Z,96323.03
2023-03-14T07:31:44.640Z,96338.38
2023-03-14T07:34:12.460Z,96318.38
2023-03-14T07:36:43.047Z,96323.03
2023-03-14T07:39:10.063Z,96312.25
2023-03-14T07:41:51.153Z,96318.25
2023-03-14T07:44:53.549Z,96325.13
2023-03-14T07:47:20.722Z,96317.53
2023-03-14T07:49:47.407Z,96323.44
2023-03-14T07:52:14.004Z,96324.72
2023-03-14T07:54:40.588Z,96327.81
2023-03-14T07:57:07.308Z,96333.13
2023-03-14T07:59:33.945Z,96320.59
2023-03-14T08:02:00.678Z,96323.13
2023-03-14T08:04:28.343Z,96329.47
2023-03-14T08:06:55.376Z,96323.44
2023-03-14T08:09:22.401Z,96332.69
2023-03-14T08:11:49.136Z,96324.44
2023-03-14T08:14:15.899Z,96325.81
2023-03-14T08:16:42.553Z,96316.94
2023-03-14T08:19:09.551Z,96323.25
2023-03-14T08:21:36.270Z,96330.91
2023-03-14T08:24:03.206Z,96329.03
2023-03-14T08:26:29.874Z,96326.41
2023-03-14T08:28:56.554Z,96329.72
2023-03-14T08:31:23.424Z,96330.38
2023-03-14T08:33:53.002Z,96338.50
2023-03-14T08:36:23.647Z,96333.41
2023-03-14T08:38:50.769Z,96332.31
2023-03-14T08:41:17.568Z,96326.47
2023-03-14T08:43:44.210Z,96328.59
2023-03-14T08:46:11.173Z,96332.22
2023-03-14T08:48:37.856Z,96360.41
2023-03-14T08:51:13.709Z,96338.06
2023-03-14T08:53:40.801Z,96333.47
2023-03-14T08:56:10.750Z,96348.47
2023-03-14T08:58:38.918Z,96352.31
2023-03-14T09:01:10.313Z,96338.31
2023-03-14T09:03:37.646Z,96339.69
2023-03-14T09:06:06.413Z,96336.44
2023-03-14T09:08:33.134Z,96348.31
2023-03-14T09:11:00.031Z,96345.66
2023-03-14T09:13:26.904Z,96339.53
2023-03-14T09:15:55.262Z,96350.78
2023-03-14T09:18:22.146Z,96350.03
2023-03-14T09:20:48.966Z,96360.38
2023-03-14T09:23:16.046Z,96359.91
2023-03-14T09:25:42.801Z,96378.84
2023-03-14T09:28:09.454Z,96361.94
2023-03-14T09:30:36.096Z,96380.09
2023-03-14T09:33:02.869Z,96379.16
2023-03-14T09:35:29.732Z,96373.44
2023-03-14T09:37:56.422Z,96384.53
2023-03-14T09:40:24.988Z,96396.22
2023-03-14T09:42:53.036Z,96388.09
2023-03-14T09:45:30.210Z,96407.75
2023-03-14T09:47:59.977Z,96420.94
2023-03-14T09:50:31.765Z,96449.28
2023-03-14T09:53:04.133Z,96469.38
2023-03-14T09:55:32.160Z,96478.31
2023-03-14T09:58:03.836Z,96484.41
2023-03-14T10:00:32.612Z,96492.75
2023-03-14T10:03:19.741Z,96493.28
2023-03-14T10:05:46.755Z,96500.75
2023-03-14T10:08:14.696Z,96509.31
2023-03-14T10:10:41.808Z,96509.13
2023-03-14T10:13:28.608Z,96531.97
2023-03-14T10:16:04.968Z,96519.75
2023-03-14T10:18:35.030Z,96545.16
2023-03-14T10:21:07.865Z,96547.94
2023-03-14T10:23:36.296Z,96580.84
2023-03-14T10:26:13.538Z,96581.47
2023-03-14T10:28:47.580Z,96596.22
2023-03-14T10:31:15.811Z,96616.91
2023-03-14T10:33:43.045Z,96631.22
2023-03-14T10:36:24.027Z,96633.91
2023-03-14T10:38:50.743Z,96652.63
2023-03-14T10:41:24.718Z,96666.25
2023-03-14T10:43:54.885Z,96673.50
2023-03-14T10:46:21.798Z,96680.88
2023-03-14T10:49:29.291Z,96696.09
2023-03-14T10:51:55.970Z,96717.84
2023-03-14T10:54:24.949Z,96729.72
2023-03-14T10:56:58.618Z,96729.00
2023-03-14T10:59:25.674Z,96755.75
2023-03-14T11:02:31.026Z,96757.31
2023-03-14T11:05:12.743Z,96769.41
2023-03-14T11:07:45.965Z,96765.03
2023-03-14T11:10:20.468Z,96756.97
2023-03-14T11:13:16.710Z,96733.94
2023-03-14T11:15:49.559Z,96754.56
2023-03-14T11:18:28.066Z,96757.91
2023-03-14T11:21:12.849Z,96759.00
2023-03-14T11:23:47.445Z,96772.00
2023-03-14T11:26:31.606Z,96784.72
2023-03-14T11:29:03.267Z,96801.50
2023-03-14T11:31:34.841Z,96818.16
2023-03-14T11:34:04.516Z,96835.28
2023-03-14T11:36:39.876Z,96851.81
2023-03-14T11:39:16.119Z,96867.75
2023-03-14T11:41:48.422Z,96870.75
2023-03-14T11:44:23.764Z,96875.63
2023-03-14T11:47:04.212Z,96865.44
2023-03-14T11:49:36.878Z,96857.28
2023-03-14T11:52:11.893Z,96853.94
2023-03-14T11:54:53.920Z,96858.13
2023-03-14T11:57:22.280Z,96858.72
2023-03-14T12:00:15.104Z,96869.53
2023-03-14T12:03:17.001Z,96878.00
2023-03-14T12:06:05.927Z,96869.53
2023-03-14T12:08:51.629Z,96904.78
2023-03-14T12:11:33.280Z,96914.13
2023-03-14T12:14:01.926Z,96908.66
2023-03-14T12:16:40.316Z,96922.84
2023-03-14T12:19:15.130Z,96931.88
2023-03-14T12:21:54.246Z,96959.22
2023-03-14T12:24:26.011Z,96968.22
2023-03-14T12:27:01.959Z,96984.06
2023-03-14T12:29:30.863Z,96959.16
2023-03-14T12:32:09.931Z,96978.88
2023-03-14T12:34:44.360Z,96967.28
2023-03-14T12:37:17.426Z,96971.31
2023-03-14T12:39:51.900Z,96973.00
2023-03-14T12:42:44.588Z,96982.94
2023-03-14T12:45:25.355Z,96990.81
2023-03-14T12:48:15.926Z,97012.31
2023-03-14T12:50:54.694Z,97000.84
2023-03-14T12:53:36.428Z,97003.34
2023-03-14T12:56:12.275Z,96990.44
2023-03-14T12:58:41.559Z,96987.78
2023-03-14T13:01:17.370Z,96991.75
2023-03-14T13:03:54.569Z,96982.69
2023-03-14T13:06:46.562Z,96999.56
2023-03-14T13:09:34.733Z,97003.50
2023-03-14T13:12:04.342Z,96999.97
2023-03-14T13:14:32.587Z,97004.97
2023-03-14T13:17:14.551Z,97003.56
2023-03-14T13:19:56.434Z,97013.75
2023-03-14T13:22:28.306Z,97026.22
2023-03-14T13:25:04.405Z,97011.81
2023-03-14T13:27:34.079Z,97040.94
2023-03-14T13:30:26.768Z,97044.28
2023-03-14T13:32:55.150Z,97058.34
2023-03-14T13:35:30.388Z,97063.53
2023-03-14T13:38:15.915Z,97079.31
2023-03-14T13:40:46.069Z,97084.88
2023-03-14T13:43:15.564Z,97099.00
2023-03-14T13:45:45.452Z,97108.09
2023-03-14T13:48:15.931Z,97107.88
2023-03-14T13:50:47.773Z,97113.47
2023-03-14T13:53:14.691Z,97112.75
2023-03-14T13:55:41.337Z,97127.41
2023-03-14T13:58:20.386Z,97152.78
2023-03-14T14:01:02.612Z,97143.25
2023-03-14T14:03:33.173Z,97135.03
2023-03-14T14:06:00.291Z,97145.34
2023-03-14T14:08:27.961Z,97139.91
2023-03-14T14:11:04.635Z,97139.75
2023-03-14T14:13:36.238Z,97154.00
2023-03-14T14:16:04.816Z,97152.97
2023-03-14T14:18:32.927Z,97168.59
2023-03-14T14:21:00.141Z,97169.72
2023-03-14T14:23:29.805Z,97165.97
2023-03-14T14:26:00.423Z,97173.63
2023-03-14T14:28:35.519Z,97173.16
2023-03-14T14:31:17.502Z,97178.47
2023-03-14T14:33:46.401Z,97175.47
2023-03-14T14:36:19.231Z,97176.78
2023-03-14T14:38:59.973Z,97175.16
2023-03-14T14:41:33.064Z,97187.75
2023-03-14T14:44:01.036Z,97178.47
2023-03-14T14:46:31.152Z,97178.63
2023-03-14T14:49:05.055Z,97198.00
2023-03-14T14:51:34.939Z,97196.03
2023-03-14T14:54:13.808Z,97215.84
2023-03-14T14:56:40.975Z,97205.81
2023-03-14T14:59:19.522Z,97218.13
2023-03-14T15:01:48.397Z,97222.22
2023-03-14T15:04:15.917Z,97223.34
2023-03-14T15:06:46.595Z,97222.56
2023-03-14T15:09:13.269Z,97232.25
2023-03-14T15:11:39.884Z,97239.53
2023-03-14T15:14:07.828Z,97229.47
2023-03-14T15:16:35.177Z,97235.06
2023-03-14T15:19:23.486Z,97239.56
2023-03-14T15:21:55.234Z,97258.28
2023-03-14T15:24:22.737Z,97262.66
2023-03-14T15:26:49.455Z,97263.13
2023-03-14T15:29:16.265Z,97268.06
2023-03-14T15:31:44.958Z,97269.25
2023-03-14T15:34:12.048Z,97261.06
2023-03-14T15:36:39.382Z,97260.56
2023-03-14T15:39:07.803Z,97277.34
2023-03-14T15:41:35.135Z,97264.41
2023-03-14T15:44:02.037Z,97268.19
2023-03-14T15:46:30.893Z,97267.09
2023-03-14T15:48:57.998Z,97264.88
2023-03-14T15:51:24.678Z,97268.94
2023-03-14T15:53:52.546Z,97280.28
2023-03-14T15:56:20.994Z,97277.28
2023-03-14T15:58:47.821Z,97297.34
2023-03-14T16:01:16.888Z,97290.41
2023-03-14T16:03:47.354Z,97298.97
2023-03-14T16:06:14.672Z,97303.56
2023-03-14T16:08:43.317Z,97313.81
2023-03-14T16:11:11.281Z,97314.06
2023-03-14T16:13:38.850Z,97327.72
2023-03-14T16:16:06.356Z,97341.16
2023-03-14T16:18:35.198Z,97339.69
2023-03-14T16:21:06.503Z,97348.78
2023-03-14T16:23:34.376Z,97344.50
2023-03-14T16:26:04.901Z,97337.41
2023-03-14T16:28:31.787Z,97336.69
2023-03-14T16:31:06.675Z,97344.50
2023-03-14T16:33:34.681Z,97336.22
2023-03-14T16:36:06.115Z,97345.31
2023-03-14T16:38:34.123Z,97343.22
2023-03-14T16:41:16.792Z,97339.44
2023-03-14T16:43:44.052Z,97345.09
2023-03-14T16:46:17.664Z,97346.94
2023-03-14T16:48:45.284Z,97360.88
2023-03-14T16:51:12.388Z,97368.88
2023-03-14T16:53:39.140Z,97376.00
2023-03-14T16:56:06.285Z,97374.81
2023-03-14T16:58:33.001Z,97378.13
2023-03-14T17:01:00.338Z,97378.94
2023-03-14T17:03:27.779Z,97397.72
2023-03-14T17:05:54.632Z,97388.03
2023-03-14T17:08:21.809Z,97419.44
2023-03-14T17:10:48.566Z,97463.78
2023-03-14T17:13:15.277Z,97475.19
2023-03-14T17:15:46.797Z,97479.00
2023-03-14T17:18:13.717Z,97498.03
2023-03-14T17:20:41.125Z,97501.19
2023-03-14T17:23:08.855Z,97503.84
2023-03-14T17:25:36.386Z,97509.09
2023-03-14T17:28:03.874Z,97510.03
2023-03-14T17:30:30.492Z,97516.31
2023-03-14T17:32:58.582Z,97523.38
2023-03-14T17:35:25.729Z,97522.72
2023-03-14T17:37:52.531Z,97514.19
2023-03-14T17:40:19.293Z,97515.69
2023-03-14T17:42:45.939Z,97522.91
2023-03-14T17:45:12.653Z,97533.47
2023-03-14T17:47:39.262Z,97533.72
2023-03-14T17:50:06.437Z,97536.34
2023-03-14T17:52:35.334Z,97536.09
2023-03-14T17:55:03.554Z,97548.66
2023-03-14T17:57:30.668Z,97557.22
2023-03-14T17:59:57.365Z,97557.81
2023-03-14T18:02:25.285Z,97561.34
2023-03-14T18:04:52.957Z,97560.47
2023-03-14T18:07:20.729Z,97557.00
2023-03-14T18:09:47.492Z,97552.66
2023-03-14T18:12:14.276Z,97559.09
2023-03-14T18:14:44.140Z,97566.69
2023-03-14T18:17:13.244Z,97571.59
2023-03-14T18:19:40.915Z,97560.88
2023-03-14T18:22:08.390Z,97570.06
2023-03-14T18:24:35.155Z,97570.94
2023-03-14T18:27:02.207Z,97567.66
2023-03-14T18:29:28.884Z,97570.56
2023-03-14T18:31:56.826Z,97584.81
2023-03-14T18:34:24.661Z,97581.25
2023-03-14T18:36:51.404Z,97588.97
2023-03-14T18:39:18.255Z,97594.16
2023-03-14T18:41:44.986Z,97593.81
2023-03-14T18:44:11.745Z,97606.31
2023-03-14T18:46:38.456Z,97615.00
2023-03-14T18:49:05.258Z,97619.00
2023-03-14T18:51:33.714Z,97619.34
2023-03-14T18:54:09.230Z,97639.34
2023-03-14T18:56:37.712Z,97658.38
2023-03-14T18:59:04.456Z,97683.75
2023-03-14T19:01:31.537Z,97702.72
2023-03-14T19:03:59.096Z,97695.78
2023-03-14T19:06:28.382Z,97701.75
2023-03-14T19:08:54.995Z,97722.66
2023-03-14T19:11:21.719Z,97736.16
2023-03-14T19:13:48.432Z,97737.13
2023-03-14T19:16:15.883Z,97744.91
2023-03-14T19:18:42.992Z,97752.56
2023-03-14T19:21:12.329Z,97765.75
2023-03-14T19:23:41.102Z,97765.50
2023-03-14T19:26:09.701Z,97780.16
2023-03-14T19:28:36.782Z,97802.75
2023-03-14T19:31:04.934Z,97819.75
2023-03-14T19:33:32.307Z,97820.00
2023-03-14T19:35:59.097Z,97826.56
2023-03-14T19:38:25.871Z,97824.00
2023-03-14T19:40:56.987Z,97833.72
2023-03-14T19:43:24.226Z,97835.25
2023-03-14T19:45:51.022Z,97839.03
2023-03-14T19:48:18.352Z,97844.28
2023-03-14T19:50:45.018Z,97852.16
2023-03-14T19:53:11.732Z,97862.59
2023-03-14T19:55:38.378Z,97861.00
2023-03-14T19:58:05.452Z,97866.28
2023-03-14T20:00:32.241Z,97862.72
2023-03-14T20:02:59.021Z,97882.97
2023-03-14T20:05:25.824Z,97877.81
2023-03-14T20:07:52.516Z,97892.53
2023-03-14T20:10:22.851Z,97903.97
2023-03-14T20:12:51.183Z,97900.50
2023-03-14T20:15:19.880Z,97898.81
2023-03-14T20:17:48.199Z,97898.56
2023-03-14T20:20:16.002Z,97902.03
2023-03-14T20:22:43.072Z,97895.28
2023-03-14T20:25:18.589Z,97882.94
2023-03-14T20:27:46.827Z,97880.34
2023-03-14T20:30:17.491Z,97876.69
2023-03-14T20:32:45.219Z,97880.19
2023-03-14T20:35:12.872Z,97881.00
2023-03-14T20:37:40.238Z,97885.41
2023-03-14T20:40:07.781Z,97876.59
2023-03-14T20:42:35.065Z,97889.66
2023-03-14T20:45:02.119Z,97887.00
2023-03-14T20:47:28.944Z,97891.44
2023-03-14T20:49:55.568Z,97900.19
2023-03-14T20:52:22.602Z,97903.72
2023-03-14T20:54:49.463Z,97908.09
2023-03-14T20:57:16.653Z,97914.06
2023-03-14T20:59:43.374Z,97929.81
2023-03-14T21:02:10.831Z,97951.84
2023-03-14T21:04:38.311Z,97957.22
2023-03-14T21:07:05.146Z,97973.03
2023-03-14T21:09:32.857Z,97966.88
2023-03-14T21:11:59.709Z,97979.13
2023-03-14T21:14:26.437Z,98006.25
2023-03-14T21:16:57.284Z,98024.75
2023-03-14T21:19:30.849Z,98025.88
2023-03-14T21:22:02.508Z,98037.28
2023-03-14T21:24:29.367Z,98046.78
2023-03-14T21:26:56.278Z,98047.69
2023-03-14T21:29:23.685Z,98044.22
2023-03-14T21:31:50.680Z,98049.44
2023-03-14T21:34:20.903Z,98047.66
2023-03-14T21:36:48.862Z,98060.88
2023-03-14T21:39:16.139Z,98061.63
2023-03-14T21:41:42.783Z,98070.38
2023-03-14T21:44:09.588Z,98075.69
2023-03-14T21:46:36.480Z,98073.88
2023-03-14T21:49:03.948Z,98078.97
2023-03-14T21:51:31.221Z,98078.97
2023-03-14T21:53:57.904Z,98085.16
2023-03-14T21:56:26.920Z,98083.38
2023-03-14T21:58:58.998Z,98091.28
2023-03-14T22:01:25.703Z,98090.44
2023-03-14T22:03:53.523Z,98100.94
2023-03-14T22:06:21.048Z,98100.22
2023-03-14T22:08:47.792Z,98108.84
2023-03-14T22:11:14.770Z,98115.81
2023-03-14T22:13:41.397Z,98121.19
2023-03-14T22:16:08.493Z,98123.00
2023-03-14T22:18:35.275Z,98131.72
2023-03-14T22:21:01.984Z,98133.44
2023-03-14T22:23:28.623Z,98133.50
2023-03-14T22:25:55.314Z,98136.19
2023-03-14T22:28:22.217Z,98146.59
2023-03-14T22:30:49.747Z,98143.16
2023-03-14T22:33:18.179Z,98150.09
2023-03-14T22:35:49.633Z,98151.00
2023-03-14T22:38:16.313Z,98145.72
2023-03-14T22:40:43.085Z,98146.63
2023-03-14T22:43:09.890Z,98153.59
2023-03-14T22:45:36.505Z,98157.06
2023-03-14T22:48:03.397Z,98157.06
2023-03-14T22:50:30.098Z,98163.19
2023-03-14T22:52:58.765Z,98168.41
2023-03-14T22:55:25.667Z,98174.53
2023-03-14T22:57:52.886Z,98176.28
2023-03-14T23:00:20.258Z,98182.38
2023-03-14T23:02:46.958Z,98186.72
2023-03-14T23:05:13.927Z,98187.59
2023-03-14T23:07:40.667Z,98194.59
2023-03-14T23:10:08.574Z,98191.97
2023-03-14T23:12:35.534Z,98189.34
2023-03-14T23:15:02.316Z,98197.19
2023-03-14T23:17:28.998Z,98199.78
2023-03-14T23:19:55.901Z,98199.81
2023-03-14T23:22:22.600Z,98204.13
2023-03-14T23:24:49.348Z,98202.41
2023-03-14T23:27:16.981Z,98212.84
2023-03-14T23:29:46.341Z,98207.63
2023-03-14T23:32:15.265Z,98210.25
2023-03-14T23:34:43.228Z,98211.91
2023-03-14T23:37:13.805Z,98214.50
2023-03-14T23:39:49.614Z,98228.50
2023-03-14T23:42:16.850Z,98232.78
2023-03-14T23:44:43.519Z,98233.75
2023-03-14T23:47:10.269Z,98243.28
2023-03-14T23:49:37.100Z,98245.00
2023-03-14T23:52:04.129Z,98239.66
2023-03-14T23:54:30.821Z,98239.84
2023-03-14T23:56:57.499Z,98251.13
2023-03-14T23:59:24.206Z,98250.16
